sensor_id;sensor_type;location;lat;lon;timestamp;P1;durP1;ratioP1;P2;durP2;ratioP2
52650;SDS011;38537;47.226;39.702;2022-10-16T00:01:15;3.42;;;2.63;;
52650;SDS011;38537;47.226;39.702;2022-10-16T00:03:44;4.47;;;2.90;;
52650;SDS011;38537;47.226;39.702;2022-10-16T00:06:13;3.35;;;2.80;;
52650;SDS011;38537;47.226;39.702;2022-10-16T00:08:42;5.10;;;3.17;;
52650;SDS011;38537;47.226;39.702;2022-10-16T00:11:15;4.30;;;2.55;;
52650;SDS011;38537;47.226;39.702;2022-10-16T00:13:47;3.95;;;2.60;;
52650;SDS011;38537;47.226;39.702;2022-10-16T00:16:16;4.43;;;3.15;;
52650;SDS011;38537;47.226;39.702;2022-10-16T00:18:44;3.92;;;2.83;;
52650;SDS011;38537;47.226;39.702;2022-10-16T00:21:24;4.57;;;2.50;;
52650;SDS011;38537;47.226;39.702;2022-10-16T00:24:11;3.55;;;2.88;;
52650;SDS011;38537;47.226;39.702;2022-10-16T00:26:39;4.15;;;2.90;;
52650;SDS011;38537;47.226;39.702;2022-10-16T00:29:07;3.35;;;2.63;;
52650;SDS011;38537;47.226;39.702;2022-10-16T00:31:35;3.20;;;2.65;;
52650;SDS011;38537;47.226;39.702;2022-10-16T00:34:02;3.97;;;3.10;;
52650;SDS011;38537;47.226;39.702;2022-10-16T00:36:29;4.25;;;2.67;;
52650;SDS011;38537;47.226;39.702;2022-10-16T00:38:58;4.70;;;2.80;;
52650;SDS011;38537;47.226;39.702;2022-10-16T00:41:27;4.72;;;2.67;;
52650;SDS011;38537;47.226;39.702;2022-10-16T00:43:59;4.88;;;3.08;;
52650;SDS011;38537;47.226;39.702;2022-10-16T00:46:41;3.72;;;2.85;;
52650;SDS011;38537;47.226;39.702;2022-10-16T00:49:10;5.70;;;3.40;;
52650;SDS011;38537;47.226;39.702;2022-10-16T00:51:41;6.10;;;3.15;;
52650;SDS011;38537;47.226;39.702;2022-10-16T00:54:23;4.32;;;2.72;;
52650;SDS011;38537;47.226;39.702;2022-10-16T00:56:53;4.53;;;3.10;;
52650;SDS011;38537;47.226;39.702;2022-10-16T00:59:32;3.25;;;2.72;;
52650;SDS011;38537;47.226;39.702;2022-10-16T01:02:02;3.15;;;2.78;;
52650;SDS011;38537;47.226;39.702;2022-10-16T01:04:32;3.45;;;2.72;;
52650;SDS011;38537;47.226;39.702;2022-10-16T01:15:47;5.15;;;2.80;;
52650;SDS011;38537;47.226;39.702;2022-10-16T01:18:49;4.18;;;2.80;;
52650;SDS011;38537;47.226;39.702;2022-10-16T01:24:08;4.28;;;2.78;;
52650;SDS011;38537;47.226;39.702;2022-10-16T01:32:16;4.00;;;2.50;;
52650;SDS011;38537;47.226;39.702;2022-10-16T01:35:07;3.63;;;2.50;;
52650;SDS011;38537;47.226;39.702;2022-10-16T01:42:54;5.82;;;2.75;;
52650;SDS011;38537;47.226;39.702;2022-10-16T01:45:25;4.28;;;2.60;;
52650;SDS011;38537;47.226;39.702;2022-10-16T01:47:57;5.85;;;2.97;;
52650;SDS011;38537;47.226;39.702;2022-10-16T01:50:27;3.95;;;2.60;;
52650;SDS011;38537;47.226;39.702;2022-10-16T01:52:55;6.50;;;2.83;;
52650;SDS011;38537;47.226;39.702;2022-10-16T01:55:27;4.40;;;3.05;;
52650;SDS011;38537;47.226;39.702;2022-10-16T01:57:57;3.22;;;2.70;;
52650;SDS011;38537;47.226;39.702;2022-10-16T02:00:28;4.05;;;2.90;;
52650;SDS011;38537;47.226;39.702;2022-10-16T02:02:57;3.22;;;2.70;;
52650;SDS011;38537;47.226;39.702;2022-10-16T02:05:30;3.75;;;2.72;;
52650;SDS011;38537;47.226;39.702;2022-10-16T02:08:07;3.22;;;2.70;;
52650;SDS011;38537;47.226;39.702;2022-10-16T02:10:35;3.95;;;2.60;;
52650;SDS011;38537;47.226;39.702;2022-10-16T02:13:19;4.85;;;2.40;;
52650;SDS011;38537;47.226;39.702;2022-10-16T02:15:51;3.80;;;2.40;;
52650;SDS011;38537;47.226;39.702;2022-10-16T02:18:20;3.75;;;2.83;;
52650;SDS011;38537;47.226;39.702;2022-10-16T02:20:51;5.03;;;2.40;;
52650;SDS011;38537;47.226;39.702;2022-10-16T02:24:11;3.70;;;2.70;;
52650;SDS011;38537;47.226;39.702;2022-10-16T02:26:29;4.20;;;2.67;;
52650;SDS011;38537;47.226;39.702;2022-10-16T02:31:35;3.45;;;2.30;;
52650;SDS011;38537;47.226;39.702;2022-10-16T02:34:08;3.03;;;2.10;;
52650;SDS011;38537;47.226;39.702;2022-10-16T02:36:39;4.97;;;2.22;;
52650;SDS011;38537;47.226;39.702;2022-10-16T02:39:08;3.00;;;2.50;;
52650;SDS011;38537;47.226;39.702;2022-10-16T02:41:37;2.85;;;2.40;;
52650;SDS011;38537;47.226;39.702;2022-10-16T02:44:05;3.92;;;2.42;;
52650;SDS011;38537;47.226;39.702;2022-10-16T02:46:32;3.65;;;2.40;;
52650;SDS011;38537;47.226;39.702;2022-10-16T02:48:59;3.08;;;2.30;;
52650;SDS011;38537;47.226;39.702;2022-10-16T02:51:27;3.13;;;2.25;;
52650;SDS011;38537;47.226;39.702;2022-10-16T02:53:54;5.13;;;2.50;;
52650;SDS011;38537;47.226;39.702;2022-10-16T02:56:21;2.90;;;2.30;;
52650;SDS011;38537;47.226;39.702;2022-10-16T02:58:49;2.90;;;2.55;;
52650;SDS011;38537;47.226;39.702;2022-10-16T03:01:17;2.58;;;2.13;;
52650;SDS011;38537;47.226;39.702;2022-10-16T03:03:45;3.30;;;2.30;;
52650;SDS011;38537;47.226;39.702;2022-10-16T03:06:13;3.17;;;2.15;;
52650;SDS011;38537;47.226;39.702;2022-10-16T03:08:40;4.43;;;2.47;;
52650;SDS011;38537;47.226;39.702;2022-10-16T03:11:07;3.90;;;2.50;;
52650;SDS011;38537;47.226;39.702;2022-10-16T03:13:35;4.88;;;2.70;;
52650;SDS011;38537;47.226;39.702;2022-10-16T03:16:02;3.90;;;2.67;;
52650;SDS011;38537;47.226;39.702;2022-10-16T03:18:29;4.03;;;2.60;;
52650;SDS011;38537;47.226;39.702;2022-10-16T03:20:57;2.85;;;2.50;;
52650;SDS011;38537;47.226;39.702;2022-10-16T03:23:24;4.90;;;2.50;;
52650;SDS011;38537;47.226;39.702;2022-10-16T03:25:52;3.92;;;2.58;;
52650;SDS011;38537;47.226;39.702;2022-10-16T03:28:20;3.70;;;2.38;;
52650;SDS011;38537;47.226;39.702;2022-10-16T03:30:48;3.17;;;2.40;;
52650;SDS011;38537;47.226;39.702;2022-10-16T03:33:17;3.45;;;2.03;;
52650;SDS011;38537;47.226;39.702;2022-10-16T03:35:50;3.15;;;2.60;;
52650;SDS011;38537;47.226;39.702;2022-10-16T03:38:20;6.28;;;3.00;;
52650;SDS011;38537;47.226;39.702;2022-10-16T03:40:51;3.53;;;2.35;;
52650;SDS011;38537;47.226;39.702;2022-10-16T03:43:18;6.68;;;3.13;;
52650;SDS011;38537;47.226;39.702;2022-10-16T03:45:45;4.45;;;2.30;;
52650;SDS011;38537;47.226;39.702;2022-10-16T03:48:13;2.67;;;2.25;;
52650;SDS011;38537;47.226;39.702;2022-10-16T03:50:40;2.92;;;2.30;;
52650;SDS011;38537;47.226;39.702;2022-10-16T03:53:07;4.53;;;2.70;;
52650;SDS011;38537;47.226;39.702;2022-10-16T03:55:35;3.97;;;2.10;;
52650;SDS011;38537;47.226;39.702;2022-10-16T03:58:03;2.67;;;2.03;;
52650;SDS011;38537;47.226;39.702;2022-10-16T04:00:31;4.18;;;2.05;;
52650;SDS011;38537;47.226;39.702;2022-10-16T04:02:58;2.55;;;2.20;;
52650;SDS011;38537;47.226;39.702;2022-10-16T04:05:25;4.28;;;2.20;;
52650;SDS011;38537;47.226;39.702;2022-10-16T04:07:53;4.03;;;2.25;;
52650;SDS011;38537;47.226;39.702;2022-10-16T04:10:21;6.60;;;2.08;;
52650;SDS011;38537;47.226;39.702;2022-10-16T04:12:49;2.45;;;2.17;;
52650;SDS011;38537;47.226;39.702;2022-10-16T04:15:16;3.85;;;2.40;;
52650;SDS011;38537;47.226;39.702;2022-10-16T04:17:44;3.90;;;2.25;;
52650;SDS011;38537;47.226;39.702;2022-10-16T04:20:11;3.80;;;2.30;;
52650;SDS011;38537;47.226;39.702;2022-10-16T04:22:38;5.65;;;2.33;;
52650;SDS011;38537;47.226;39.702;2022-10-16T04:25:07;3.88;;;2.88;;
52650;SDS011;38537;47.226;39.702;2022-10-16T04:27:34;3.35;;;2.10;;
52650;SDS011;38537;47.226;39.702;2022-10-16T04:30:03;4.32;;;2.50;;
52650;SDS011;38537;47.226;39.702;2022-10-16T04:32:31;3.70;;;2.50;;
52650;SDS011;38537;47.226;39.702;2022-10-16T04:34:59;2.53;;;2.13;;
52650;SDS011;38537;47.226;39.702;2022-10-16T04:37:26;3.10;;;2.20;;
52650;SDS011;38537;47.226;39.702;2022-10-16T04:39:54;3.75;;;2.30;;
52650;SDS011;38537;47.226;39.702;2022-10-16T04:42:22;4.35;;;2.50;;
52650;SDS011;38537;47.226;39.702;2022-10-16T04:44:49;3.72;;;2.70;;
52650;SDS011;38537;47.226;39.702;2022-10-16T04:47:17;5.45;;;2.58;;
52650;SDS011;38537;47.226;39.702;2022-10-16T04:49:44;6.78;;;2.38;;
52650;SDS011;38537;47.226;39.702;2022-10-16T04:52:11;8.18;;;2.92;;
52650;SDS011;38537;47.226;39.702;2022-10-16T04:54:38;5.38;;;2.53;;
52650;SDS011;38537;47.226;39.702;2022-10-16T04:57:05;3.60;;;2.58;;
52650;SDS011;38537;47.226;39.702;2022-10-16T04:59:33;5.80;;;2.60;;
52650;SDS011;38537;47.226;39.702;2022-10-16T05:02:00;4.30;;;2.65;;
52650;SDS011;38537;47.226;39.702;2022-10-16T05:04:31;3.05;;;2.42;;
52650;SDS011;38537;47.226;39.702;2022-10-16T05:06:58;6.68;;;2.80;;
52650;SDS011;38537;47.226;39.702;2022-10-16T05:09:27;4.30;;;2.58;;
52650;SDS011;38537;47.226;39.702;2022-10-16T05:11:55;2.65;;;2.45;;
52650;SDS011;38537;47.226;39.702;2022-10-16T05:14:22;3.30;;;2.40;;
52650;SDS011;38537;47.226;39.702;2022-10-16T05:16:49;3.47;;;2.30;;
52650;SDS011;38537;47.226;39.702;2022-10-16T05:19:17;3.35;;;2.58;;
52650;SDS011;38537;47.226;39.702;2022-10-16T05:21:53;5.85;;;2.67;;
52650;SDS011;38537;47.226;39.702;2022-10-16T05:24:21;4.88;;;2.58;;
52650;SDS011;38537;47.226;39.702;2022-10-16T05:26:49;2.78;;;2.40;;
52650;SDS011;38537;47.226;39.702;2022-10-16T05:29:17;4.40;;;2.63;;
52650;SDS011;38537;47.226;39.702;2022-10-16T05:31:45;3.20;;;2.40;;
52650;SDS011;38537;47.226;39.702;2022-10-16T05:34:12;3.45;;;2.72;;
52650;SDS011;38537;47.226;39.702;2022-10-16T05:36:40;4.13;;;2.67;;
52650;SDS011;38537;47.226;39.702;2022-10-16T05:39:07;4.43;;;2.50;;
52650;SDS011;38537;47.226;39.702;2022-10-16T05:41:34;5.53;;;2.90;;
52650;SDS011;38537;47.226;39.702;2022-10-16T05:44:03;5.20;;;2.80;;
52650;SDS011;38537;47.226;39.702;2022-10-16T05:46:32;7.90;;;3.08;;
52650;SDS011;38537;47.226;39.702;2022-10-16T05:49:00;6.57;;;2.50;;
52650;SDS011;38537;47.226;39.702;2022-10-16T05:51:27;5.13;;;2.55;;
52650;SDS011;38537;47.226;39.702;2022-10-16T05:53:54;4.45;;;2.20;;
52650;SDS011;38537;47.226;39.702;2022-10-16T05:56:22;3.28;;;2.40;;
52650;SDS011;38537;47.226;39.702;2022-10-16T05:58:49;3.85;;;2.58;;
52650;SDS011;38537;47.226;39.702;2022-10-16T06:01:17;3.50;;;2.20;;
52650;SDS011;38537;47.226;39.702;2022-10-16T06:03:46;4.50;;;2.60;;
52650;SDS011;38537;47.226;39.702;2022-10-16T06:06:14;3.63;;;2.65;;
52650;SDS011;38537;47.226;39.702;2022-10-16T06:08:43;4.80;;;2.50;;
52650;SDS011;38537;47.226;39.702;2022-10-16T06:11:16;4.55;;;2.67;;
52650;SDS011;38537;47.226;39.702;2022-10-16T06:13:48;5.32;;;2.50;;
52650;SDS011;38537;47.226;39.702;2022-10-16T06:16:16;3.78;;;2.50;;
52650;SDS011;38537;47.226;39.702;2022-10-16T06:18:43;2.83;;;2.30;;
52650;SDS011;38537;47.226;39.702;2022-10-16T06:21:12;3.22;;;2.47;;
52650;SDS011;38537;47.226;39.702;2022-10-16T06:23:43;4.32;;;1.98;;
52650;SDS011;38537;47.226;39.702;2022-10-16T06:26:13;3.28;;;2.45;;
52650;SDS011;38537;47.226;39.702;2022-10-16T06:28:43;4.72;;;2.40;;
52650;SDS011;38537;47.226;39.702;2022-10-16T06:31:11;3.08;;;2.10;;
52650;SDS011;38537;47.226;39.702;2022-10-16T06:33:39;6.15;;;2.40;;
52650;SDS011;38537;47.226;39.702;2022-10-16T06:36:11;5.00;;;2.30;;
52650;SDS011;38537;47.226;39.702;2022-10-16T06:38:43;3.10;;;2.10;;
52650;SDS011;38537;47.226;39.702;2022-10-16T06:41:12;3.28;;;1.80;;
52650;SDS011;38537;47.226;39.702;2022-10-16T06:43:41;3.55;;;2.42;;
52650;SDS011;38537;47.226;39.702;2022-10-16T06:46:09;3.78;;;1.70;;
52650;SDS011;38537;47.226;39.702;2022-10-16T06:48:37;4.78;;;2.55;;
52650;SDS011;38537;47.226;39.702;2022-10-16T06:51:06;3.30;;;2.20;;
52650;SDS011;38537;47.226;39.702;2022-10-16T06:53:42;4.88;;;2.00;;
52650;SDS011;38537;47.226;39.702;2022-10-16T06:56:28;6.53;;;2.20;;
52650;SDS011;38537;47.226;39.702;2022-10-16T06:58:58;2.97;;;2.08;;
52650;SDS011;38537;47.226;39.702;2022-10-16T07:01:26;2.60;;;1.92;;
52650;SDS011;38537;47.226;39.702;2022-10-16T07:03:55;3.92;;;1.92;;
52650;SDS011;38537;47.226;39.702;2022-10-16T07:06:23;4.07;;;2.00;;
52650;SDS011;38537;47.226;39.702;2022-10-16T07:08:52;3.03;;;1.85;;
52650;SDS011;38537;47.226;39.702;2022-10-16T07:11:20;4.13;;;1.90;;
52650;SDS011;38537;47.226;39.702;2022-10-16T07:13:49;2.42;;;1.60;;
52650;SDS011;38537;47.226;39.702;2022-10-16T07:16:25;3.38;;;1.95;;
52650;SDS011;38537;47.226;39.702;2022-10-16T07:18:55;3.53;;;1.80;;
52650;SDS011;38537;47.226;39.702;2022-10-16T07:21:27;2.25;;;1.90;;
52650;SDS011;38537;47.226;39.702;2022-10-16T07:23:58;3.63;;;2.20;;
52650;SDS011;38537;47.226;39.702;2022-10-16T07:26:30;2.35;;;1.70;;
52650;SDS011;38537;47.226;39.702;2022-10-16T07:28:59;4.20;;;2.47;;
52650;SDS011;38537;47.226;39.702;2022-10-16T07:31:27;2.22;;;1.83;;
52650;SDS011;38537;47.226;39.702;2022-10-16T07:33:55;2.72;;;1.95;;
52650;SDS011;38537;47.226;39.702;2022-10-16T07:36:25;3.80;;;2.22;;
52650;SDS011;38537;47.226;39.702;2022-10-16T07:38:52;3.72;;;2.00;;
52650;SDS011;38537;47.226;39.702;2022-10-16T07:41:26;4.05;;;2.00;;
52650;SDS011;38537;47.226;39.702;2022-10-16T07:43:53;3.67;;;2.00;;
52650;SDS011;38537;47.226;39.702;2022-10-16T07:46:22;3.03;;;1.90;;
52650;SDS011;38537;47.226;39.702;2022-10-16T07:48:50;4.10;;;1.80;;
52650;SDS011;38537;47.226;39.702;2022-10-16T07:51:18;4.40;;;1.73;;
52650;SDS011;38537;47.226;39.702;2022-10-16T07:53:47;2.33;;;1.90;;
52650;SDS011;38537;47.226;39.702;2022-10-16T07:56:15;4.50;;;1.95;;
52650;SDS011;38537;47.226;39.702;2022-10-16T07:58:43;3.28;;;1.85;;
52650;SDS011;38537;47.226;39.702;2022-10-16T08:01:11;3.90;;;1.83;;
52650;SDS011;38537;47.226;39.702;2022-10-16T08:03:42;2.47;;;1.75;;
52650;SDS011;38537;47.226;39.702;2022-10-16T08:06:13;2.70;;;2.00;;
52650;SDS011;38537;47.226;39.702;2022-10-16T08:08:40;4.20;;;2.10;;
52650;SDS011;38537;47.226;39.702;2022-10-16T08:11:08;3.67;;;1.73;;
52650;SDS011;38537;47.226;39.702;2022-10-16T08:13:36;4.55;;;1.90;;
52650;SDS011;38537;47.226;39.702;2022-10-16T08:16:04;2.42;;;1.60;;
52650;SDS011;38537;47.226;39.702;2022-10-16T08:18:34;3.17;;;1.60;;
52650;SDS011;38537;47.226;39.702;2022-10-16T08:21:03;5.93;;;2.10;;
52650;SDS011;38537;47.226;39.702;2022-10-16T08:23:32;2.58;;;1.60;;
52650;SDS011;38537;47.226;39.702;2022-10-16T08:26:07;1.95;;;1.48;;
52650;SDS011;38537;47.226;39.702;2022-10-16T08:28:35;3.22;;;1.88;;
52650;SDS011;38537;47.226;39.702;2022-10-16T08:31:13;4.43;;;1.75;;
52650;SDS011;38537;47.226;39.702;2022-10-16T08:33:44;3.20;;;1.50;;
52650;SDS011;38537;47.226;39.702;2022-10-16T08:36:13;2.90;;;1.73;;
52650;SDS011;38537;47.226;39.702;2022-10-16T08:38:41;1.73;;;1.50;;
52650;SDS011;38537;47.226;39.702;2022-10-16T08:41:22;2.42;;;1.63;;
52650;SDS011;38537;47.226;39.702;2022-10-16T08:44:02;3.70;;;1.60;;
52650;SDS011;38537;47.226;39.702;2022-10-16T08:49:57;4.28;;;1.60;;
52650;SDS011;38537;47.226;39.702;2022-10-16T08:52:29;3.33;;;2.00;;
52650;SDS011;38537;47.226;39.702;2022-10-16T08:55:00;5.13;;;1.90;;
52650;SDS011;38537;47.226;39.702;2022-10-16T08:57:29;3.22;;;1.77;;
52650;SDS011;38537;47.226;39.702;2022-10-16T09:00:05;2.92;;;1.90;;
52650;SDS011;38537;47.226;39.702;2022-10-16T09:11:33;2.40;;;1.60;;
52650;SDS011;38537;47.226;39.702;2022-10-16T09:20:13;4.03;;;1.80;;
52650;SDS011;38537;47.226;39.702;2022-10-16T09:22:43;4.30;;;1.60;;
52650;SDS011;38537;47.226;39.702;2022-10-16T09:25:12;2.15;;;1.50;;
52650;SDS011;38537;47.226;39.702;2022-10-16T09:27:45;5.43;;;2.45;;
52650;SDS011;38537;47.226;39.702;2022-10-16T09:30:18;2.17;;;1.50;;
52650;SDS011;38537;47.226;39.702;2022-10-16T09:32:48;7.72;;;1.80;;
52650;SDS011;38537;47.226;39.702;2022-10-16T09:35:27;2.70;;;1.70;;
52650;SDS011;38537;47.226;39.702;2022-10-16T09:38:00;3.28;;;1.50;;
52650;SDS011;38537;47.226;39.702;2022-10-16T09:40:34;2.95;;;1.60;;
52650;SDS011;38537;47.226;39.702;2022-10-16T09:46:05;6.93;;;1.70;;
52650;SDS011;38537;47.226;39.702;2022-10-16T09:51:03;3.70;;;1.70;;
52650;SDS011;38537;47.226;39.702;2022-10-16T09:53:39;2.95;;;1.60;;
52650;SDS011;38537;47.226;39.702;2022-10-16T09:56:12;2.45;;;1.70;;
52650;SDS011;38537;47.226;39.702;2022-10-16T09:58:54;1.70;;;1.58;;
52650;SDS011;38537;47.226;39.702;2022-10-16T10:01:28;2.88;;;1.75;;
52650;SDS011;38537;47.226;39.702;2022-10-16T10:04:02;2.20;;;1.70;;
52650;SDS011;38537;47.226;39.702;2022-10-16T10:11:40;2.70;;;1.60;;
52650;SDS011;38537;47.226;39.702;2022-10-16T10:14:35;2.22;;;1.48;;
52650;SDS011;38537;47.226;39.702;2022-10-16T10:19:55;2.70;;;1.70;;
52650;SDS011;38537;47.226;39.702;2022-10-16T10:38:56;6.60;;;1.70;;
52650;SDS011;38537;47.226;39.702;2022-10-16T10:41:27;3.78;;;1.70;;
52650;SDS011;38537;47.226;39.702;2022-10-16T10:47:02;4.22;;;1.83;;
52650;SDS011;38537;47.226;39.702;2022-10-16T10:58:19;5.00;;;1.52;;
52650;SDS011;38537;47.226;39.702;2022-10-16T11:04:01;2.38;;;1.40;;
52650;SDS011;38537;47.226;39.702;2022-10-16T11:09:48;2.72;;;1.70;;
52650;SDS011;38537;47.226;39.702;2022-10-16T11:12:44;3.25;;;1.73;;
52650;SDS011;38537;47.226;39.702;2022-10-16T11:15:21;4.70;;;1.80;;
52650;SDS011;38537;47.226;39.702;2022-10-16T11:20:31;2.17;;;1.40;;
52650;SDS011;38537;47.226;39.702;2022-10-16T11:23:17;2.67;;;1.50;;
52650;SDS011;38537;47.226;39.702;2022-10-16T11:25:45;6.75;;;1.90;;
52650;SDS011;38537;47.226;39.702;2022-10-16T11:33:54;3.47;;;1.90;;
52650;SDS011;38537;47.226;39.702;2022-10-16T11:36:38;6.78;;;2.08;;
52650;SDS011;38537;47.226;39.702;2022-10-16T11:39:28;4.57;;;1.85;;
52650;SDS011;38537;47.226;39.702;2022-10-16T11:42:10;3.67;;;1.80;;
52650;SDS011;38537;47.226;39.702;2022-10-16T11:47:48;2.58;;;1.58;;
52650;SDS011;38537;47.226;39.702;2022-10-16T11:50:47;6.68;;;1.67;;
52650;SDS011;38537;47.226;39.702;2022-10-16T11:56:24;5.15;;;1.60;;
52650;SDS011;38537;47.226;39.702;2022-10-16T11:58:58;3.22;;;1.60;;
52650;SDS011;38537;47.226;39.702;2022-10-16T12:09:39;5.22;;;1.80;;
52650;SDS011;38537;47.226;39.702;2022-10-16T12:12:28;5.07;;;1.77;;
52650;SDS011;38537;47.226;39.702;2022-10-16T12:17:52;4.40;;;1.50;;
52650;SDS011;38537;47.226;39.702;2022-10-16T12:20:22;2.53;;;1.38;;
52650;SDS011;38537;47.226;39.702;2022-10-16T12:22:56;2.47;;;1.55;;
52650;SDS011;38537;47.226;39.702;2022-10-16T12:25:30;3.97;;;1.75;;
52650;SDS011;38537;47.226;39.702;2022-10-16T12:30:36;2.95;;;1.80;;
52650;SDS011;38537;47.226;39.702;2022-10-16T12:33:05;3.63;;;1.70;;
52650;SDS011;38537;47.226;39.702;2022-10-16T12:35:44;3.58;;;1.98;;
52650;SDS011;38537;47.226;39.702;2022-10-16T12:38:19;4.13;;;1.80;;
52650;SDS011;38537;47.226;39.702;2022-10-16T12:40:56;2.63;;;1.85;;
52650;SDS011;38537;47.226;39.702;2022-10-16T12:48:42;3.65;;;1.70;;
52650;SDS011;38537;47.226;39.702;2022-10-16T12:54:02;3.50;;;1.75;;
52650;SDS011;38537;47.226;39.702;2022-10-16T13:13:35;4.95;;;2.42;;
52650;SDS011;38537;47.226;39.702;2022-10-16T13:24:18;1.95;;;1.50;;
52650;SDS011;38537;47.226;39.702;2022-10-16T13:35:27;5.78;;;2.00;;
52650;SDS011;38537;47.226;39.702;2022-10-16T13:38:11;4.82;;;1.80;;
52650;SDS011;38537;47.226;39.702;2022-10-16T13:40:56;4.57;;;1.90;;
52650;SDS011;38537;47.226;39.702;2022-10-16T13:43:35;4.17;;;1.50;;
52650;SDS011;38537;47.226;39.702;2022-10-16T13:46:05;2.40;;;1.50;;
52650;SDS011;38537;47.226;39.702;2022-10-16T13:48:34;2.88;;;1.50;;
52650;SDS011;38537;47.226;39.702;2022-10-16T13:51:02;4.15;;;1.73;;
52650;SDS011;38537;47.226;39.702;2022-10-16T13:53:34;3.25;;;1.70;;
52650;SDS011;38537;47.226;39.702;2022-10-16T13:56:03;3.17;;;1.42;;
52650;SDS011;38537;47.226;39.702;2022-10-16T13:58:33;3.50;;;1.95;;
52650;SDS011;38537;47.226;39.702;2022-10-16T14:01:04;3.45;;;1.50;;
52650;SDS011;38537;47.226;39.702;2022-10-16T14:03:42;2.78;;;1.80;;
52650;SDS011;38537;47.226;39.702;2022-10-16T14:06:14;2.55;;;1.63;;
52650;SDS011;38537;47.226;39.702;2022-10-16T14:09:00;3.15;;;1.63;;
52650;SDS011;38537;47.226;39.702;2022-10-16T14:11:32;2.33;;;1.60;;
52650;SDS011;38537;47.226;39.702;2022-10-16T14:14:05;2.58;;;1.67;;
52650;SDS011;38537;47.226;39.702;2022-10-16T14:16:37;3.70;;;1.60;;
52650;SDS011;38537;47.226;39.702;2022-10-16T14:19:18;8.13;;;1.67;;
52650;SDS011;38537;47.226;39.702;2022-10-16T14:21:51;1.98;;;1.45;;
52650;SDS011;38537;47.226;39.702;2022-10-16T14:24:32;3.30;;;1.70;;
52650;SDS011;38537;47.226;39.702;2022-10-16T14:27:02;4.10;;;1.90;;
52650;SDS011;38537;47.226;39.702;2022-10-16T14:29:29;3.70;;;2.20;;
52650;SDS011;38537;47.226;39.702;2022-10-16T14:32:06;3.33;;;1.70;;
52650;SDS011;38537;47.226;39.702;2022-10-16T14:34:53;3.10;;;1.90;;
52650;SDS011;38537;47.226;39.702;2022-10-16T14:37:24;4.10;;;2.10;;
52650;SDS011;38537;47.226;39.702;2022-10-16T14:39:55;6.20;;;2.00;;
52650;SDS011;38537;47.226;39.702;2022-10-16T14:42:24;3.45;;;2.00;;
52650;SDS011;38537;47.226;39.702;2022-10-16T14:44:53;5.25;;;2.05;;
52650;SDS011;38537;47.226;39.702;2022-10-16T14:47:23;4.63;;;2.00;;
52650;SDS011;38537;47.226;39.702;2022-10-16T14:49:54;5.43;;;2.17;;
52650;SDS011;38537;47.226;39.702;2022-10-16T14:52:24;4.68;;;2.42;;
52650;SDS011;38537;47.226;39.702;2022-10-16T14:54:51;4.00;;;2.30;;
52650;SDS011;38537;47.226;39.702;2022-10-16T14:57:24;3.53;;;2.20;;
52650;SDS011;38537;47.226;39.702;2022-10-16T14:59:55;5.05;;;2.40;;
52650;SDS011;38537;47.226;39.702;2022-10-16T15:02:25;4.07;;;2.10;;
52650;SDS011;38537;47.226;39.702;2022-10-16T15:04:56;5.35;;;2.20;;
52650;SDS011;38537;47.226;39.702;2022-10-16T15:07:25;4.10;;;2.25;;
52650;SDS011;38537;47.226;39.702;2022-10-16T15:09:53;5.97;;;2.30;;
52650;SDS011;38537;47.226;39.702;2022-10-16T15:12:20;2.63;;;1.98;;
52650;SDS011;38537;47.226;39.702;2022-10-16T15:14:48;3.08;;;2.15;;
52650;SDS011;38537;47.226;39.702;2022-10-16T15:17:15;4.97;;;2.55;;
52650;SDS011;38537;47.226;39.702;2022-10-16T15:19:46;3.70;;;2.20;;
52650;SDS011;38537;47.226;39.702;2022-10-16T15:22:14;2.72;;;2.05;;
52650;SDS011;38537;47.226;39.702;2022-10-16T15:24:41;3.70;;;2.55;;
52650;SDS011;38537;47.226;39.702;2022-10-16T15:27:08;4.10;;;2.35;;
52650;SDS011;38537;47.226;39.702;2022-10-16T15:29:36;3.03;;;2.17;;
52650;SDS011;38537;47.226;39.702;2022-10-16T15:32:05;6.10;;;2.45;;
52650;SDS011;38537;47.226;39.702;2022-10-16T15:34:32;6.53;;;2.47;;
52650;SDS011;38537;47.226;39.702;2022-10-16T15:37:02;4.15;;;2.25;;
52650;SDS011;38537;47.226;39.702;2022-10-16T15:39:30;3.13;;;2.28;;
52650;SDS011;38537;47.226;39.702;2022-10-16T15:41:57;7.22;;;2.40;;
52650;SDS011;38537;47.226;39.702;2022-10-16T15:44:24;3.00;;;2.30;;
52650;SDS011;38537;47.226;39.702;2022-10-16T15:46:56;3.90;;;2.65;;
52650;SDS011;38537;47.226;39.702;2022-10-16T15:49:23;6.57;;;3.25;;
52650;SDS011;38537;47.226;39.702;2022-10-16T15:51:51;4.43;;;2.30;;
52650;SDS011;38537;47.226;39.702;2022-10-16T15:54:19;6.80;;;2.45;;
52650;SDS011;38537;47.226;39.702;2022-10-16T15:56:49;7.60;;;2.67;;
52650;SDS011;38537;47.226;39.702;2022-10-16T15:59:19;2.67;;;2.00;;
52650;SDS011;38537;47.226;39.702;2022-10-16T16:01:46;3.35;;;2.33;;
52650;SDS011;38537;47.226;39.702;2022-10-16T16:04:13;5.10;;;2.47;;
52650;SDS011;38537;47.226;39.702;2022-10-16T16:07:01;7.07;;;2.47;;
52650;SDS011;38537;47.226;39.702;2022-10-16T16:09:29;3.30;;;2.40;;
52650;SDS011;38537;47.226;39.702;2022-10-16T16:11:56;3.65;;;2.45;;
52650;SDS011;38537;47.226;39.702;2022-10-16T16:14:27;4.43;;;2.30;;
52650;SDS011;38537;47.226;39.702;2022-10-16T16:16:55;3.60;;;2.17;;
52650;SDS011;38537;47.226;39.702;2022-10-16T16:19:24;2.55;;;1.95;;
52650;SDS011;38537;47.226;39.702;2022-10-16T16:21:51;6.57;;;2.13;;
52650;SDS011;38537;47.226;39.702;2022-10-16T16:24:18;3.90;;;2.05;;
52650;SDS011;38537;47.226;39.702;2022-10-16T16:26:46;4.38;;;2.20;;
52650;SDS011;38537;47.226;39.702;2022-10-16T16:29:14;4.05;;;1.70;;
52650;SDS011;38537;47.226;39.702;2022-10-16T16:31:42;4.97;;;2.00;;
52650;SDS011;38537;47.226;39.702;2022-10-16T16:34:10;2.53;;;1.73;;
52650;SDS011;38537;47.226;39.702;2022-10-16T16:36:38;2.90;;;2.00;;
52650;SDS011;38537;47.226;39.702;2022-10-16T16:39:06;3.42;;;2.00;;
52650;SDS011;38537;47.226;39.702;2022-10-16T16:41:34;3.75;;;1.50;;
52650;SDS011;38537;47.226;39.702;2022-10-16T16:44:05;7.03;;;2.10;;
52650;SDS011;38537;47.226;39.702;2022-10-16T16:46:35;4.40;;;1.80;;
52650;SDS011;38537;47.226;39.702;2022-10-16T16:49:03;3.80;;;1.90;;
52650;SDS011;38537;47.226;39.702;2022-10-16T16:51:31;3.20;;;1.80;;
52650;SDS011;38537;47.226;39.702;2022-10-16T16:54:04;2.55;;;1.90;;
52650;SDS011;38537;47.226;39.702;2022-10-16T16:56:31;2.67;;;1.95;;
52650;SDS011;38537;47.226;39.702;2022-10-16T16:58:59;3.25;;;2.10;;
52650;SDS011;38537;47.226;39.702;2022-10-16T17:01:26;4.05;;;2.03;;
52650;SDS011;38537;47.226;39.702;2022-10-16T17:03:55;3.15;;;1.90;;
52650;SDS011;38537;47.226;39.702;2022-10-16T17:06:25;3.08;;;1.85;;
52650;SDS011;38537;47.226;39.702;2022-10-16T17:08:56;4.50;;;1.95;;
52650;SDS011;38537;47.226;39.702;2022-10-16T17:11:24;2.35;;;1.73;;
52650;SDS011;38537;47.226;39.702;2022-10-16T17:13:54;2.38;;;2.00;;
52650;SDS011;38537;47.226;39.702;2022-10-16T17:16:24;2.60;;;2.10;;
52650;SDS011;38537;47.226;39.702;2022-10-16T17:18:54;3.47;;;2.15;;
52650;SDS011;38537;47.226;39.702;2022-10-16T17:21:21;3.55;;;2.30;;
52650;SDS011;38537;47.226;39.702;2022-10-16T17:23:50;3.20;;;2.40;;
52650;SDS011;38537;47.226;39.702;2022-10-16T17:26:19;5.28;;;2.33;;
52650;SDS011;38537;47.226;39.702;2022-10-16T17:28:49;5.35;;;2.58;;
52650;SDS011;38537;47.226;39.702;2022-10-16T17:31:19;5.57;;;2.50;;
52650;SDS011;38537;47.226;39.702;2022-10-16T17:33:48;2.95;;;2.13;;
52650;SDS011;38537;47.226;39.702;2022-10-16T17:36:17;3.58;;;2.30;;